KMPV/MPV METAR and TAF weather

Enter ICAO airport designator
Station Type Date Time Source
KMPV METAR 2020/04/02 01:51 UTC NOAA

KMPV 020151Z AUTO 35011KT 10SM OVC025 02/M03 A2984 RMK AO2 SLP118 T00221028


Station Type Date Time Source
KMPV Decoded METAR 2020/04/02 01:51 UTC NOAA

KNAPP STATE AIRPORT, VT, United States (KMPV) 44-12N 072-34W 343M
Apr 01, 2020 - 09:51 PM EDT / 2020.04.02 0151 UTC
Wind: from the N (350 degrees) at 13 MPH (11 KT):0
Visibility: 10 mile(s):0
Sky conditions: overcast
Temperature: 36.0 F (2.2 C)
Dew Point: 27.0 F (-2.8 C)
Relative Humidity: 69%
Pressure (altimeter): 29.84 in. Hg (1010 hPa)
ob: KMPV 020151Z AUTO 35011KT 10SM OVC025 02/M03 A2984 RMK AO2 SLP118 T00221028
cycle: 2

Station Type Date Time Source
KMPV TAF 2020/04/02 02:34 UTC NOAA

TAF
AMD KMPV 020132Z 0202/0224 36006KT P6SM BKN025
FM020600 34007KT P6SM BKN018
FM021700 33011KT P6SM VCSH OVC009
FM021900 33011KT 4SM -RA BR OVC007

Example: see airport list